Whiteman Air Force Base, Missouri
Current Conditions -  °F | °C
As of 2:58 PM on Saturday 25 Oct 2014 (Local Time) from KSZL Reporting Station
Clear Clear  
Wind Chill: 77°   Ceiling: Unl
Heat Index: 79°   Visibility: 7mi
Dew Point: 64°   Wind: 3mph
Humidity: 65%   Direction: 40°NE
Pressure: 30.03"   Gusts: NA
Location:  38.7318°N, 93.5731°W
Report Text: KSZL 251958Z 04003KT 7SM CLR 25/18 A3003 RMK AO2A SLP167 T02490178 $
Loading
Personal Weather Stations






























Interactive Weather Map
Tropical Storm Tracking
New forecast layout! Learn more

10-Day Weather Forecast

Advertisements
Track Severe Weather on mobile